Time;durP1;ratioP1;P1;durP2;ratioP2;P2;SDS_P1;SDS_P2;PMS_P1;PMS_P2;Temp;Humidity;BMP_temperature;BMP_pressure;BME280_temperature;BME280_humidity;BME280_pressure;Samples;Min_cycle;Max_cycle;Signal;HPM_P1;HPM_P2
2023/05/06 00:01:04;;;;;;;20.65;9.80;;;13.00;99.90;;;;;;4994726;28;20290;-83
2023/05/06 00:03:30;;;;;;;12.75;9.63;;;13.00;99.90;;;;;;5010168;28;20511;-83
2023/05/06 00:05:56;;;;;;;11.07;9.48;;;13.00;99.90;;;;;;4995089;28;20172;-83
2023/05/06 00:08:21;;;;;;;15.05;8.55;;;13.00;99.90;;;;;;5009497;28;20172;-83
2023/05/06 00:10:47;;;;;;;15.70;9.88;;;12.90;99.90;;;;;;5009714;28;20326;-83
2023/05/06 00:13:13;;;;;;;12.85;9.82;;;12.90;99.90;;;;;;5009729;28;20250;-83
2023/05/06 00:15:39;;;;;;;13.57;10.10;;;12.90;99.90;;;;;;4994651;28;20202;-82
2023/05/06 00:18:05;;;;;;;14.68;10.27;;;12.90;99.90;;;;;;5009954;28;20176;-85
2023/05/06 00:20:31;;;;;;;11.98;9.85;;;12.90;99.90;;;;;;4994261;28;20214;-85
2023/05/06 00:22:58;;;;;;;13.88;10.45;;;12.90;99.90;;;;;;5009780;28;20295;-84
2023/05/06 00:25:24;;;;;;;11.85;9.35;;;12.90;99.90;;;;;;4994761;28;20183;-85
2023/05/06 00:27:51;;;;;;;13.50;10.18;;;12.90;99.90;;;;;;5009814;28;20182;-84
2023/05/06 00:30:17;;;;;;;11.65;9.02;;;13.00;99.90;;;;;;5009686;28;20893;-84
2023/05/06 00:32:43;;;;;;;11.77;9.38;;;13.00;99.90;;;;;;5009532;28;20344;-83
2023/05/06 00:35:09;;;;;;;11.13;8.88;;;13.10;99.90;;;;;;4994225;28;20223;-89
2023/05/06 00:37:34;;;;;;;13.43;9.00;;;13.10;99.90;;;;;;5009779;28;20194;-84
2023/05/06 00:40:02;;;;;;;10.52;8.77;;;13.10;99.90;;;;;;4994741;28;20642;-84
2023/05/06 00:42:28;;;;;;;10.07;8.70;;;13.20;99.90;;;;;;4995282;28;20211;-82
2023/05/06 00:44:53;;;;;;;13.25;8.63;;;13.20;99.90;;;;;;4994751;28;20214;-84
2023/05/06 00:47:22;;;;;;;14.02;8.48;;;13.20;99.90;;;;;;4995080;28;20184;-86
2023/05/06 00:49:51;;;;;;;13.63;9.88;;;13.20;99.90;;;;;;5010185;28;20180;-86
2023/05/06 00:52:18;;;;;;;14.18;9.40;;;13.20;99.90;;;;;;4994912;28;20168;-89
2023/05/06 00:54:44;;;;;;;10.90;8.00;;;13.20;99.90;;;;;;4994416;28;20179;-85
2023/05/06 00:57:10;;;;;;;11.32;8.95;;;13.20;99.90;;;;;;5010100;28;20265;-84
2023/05/06 00:59:36;;;;;;;11.50;9.20;;;13.20;99.90;;;;;;4994648;28;20215;-89
2023/05/06 01:02:02;;;;;;;12.10;8.80;;;13.20;99.90;;;;;;4995027;28;20180;-91
2023/05/06 01:04:28;;;;;;;11.77;8.05;;;13.20;99.90;;;;;;5010634;28;20273;-87
2023/05/06 01:07:18;;;;;;;15.20;8.98;;;13.10;99.90;;;;;;4995088;28;20176;-87
2023/05/06 01:09:56;;;;;;;10.50;8.98;;;13.10;99.90;;;;;;5010328;28;20175;-89
2023/05/06 01:12:32;;;;;;;11.63;8.88;;;13.20;99.90;;;;;;5012279;28;20186;-89
2023/05/06 01:15:15;;;;;;;11.02;8.45;;;13.10;99.90;;;;;;4998549;28;20266;-84
2023/05/06 01:17:49;;;;;;;11.30;8.60;;;13.20;99.90;;;;;;4998404;28;20182;-83
2023/05/06 01:20:19;;;;;;;11.93;8.70;;;13.20;99.90;;;;;;5013366;28;20551;-89
2023/05/06 01:22:45;;;;;;;13.65;9.23;;;13.10;99.90;;;;;;4998196;28;20164;-83
2023/05/06 01:25:21;;;;;;;8.98;7.82;;;13.10;99.90;;;;;;4998318;28;20262;-82
2023/05/06 01:27:48;;;;;;;11.15;8.57;;;13.10;99.90;;;;;;4998250;28;20171;-84
2023/05/06 01:30:18;;;;;;;12.07;9.05;;;13.10;99.90;;;;;;5012913;28;20183;-82
2023/05/06 01:32:47;;;;;;;12.93;8.60;;;13.00;99.90;;;;;;4997981;28;20171;-82
2023/05/06 01:35:31;;;;;;;10.57;8.27;;;13.00;99.90;;;;;;4998083;28;20219;-83
2023/05/06 01:38:36;;;;;;;9.00;8.05;;;13.00;99.90;;;;;;5013028;28;20180;-83
2023/05/06 01:41:03;;;;;;;10.18;8.20;;;12.90;99.90;;;;;;5012988;28;20600;-85
2023/05/06 01:43:33;;;;;;;11.60;9.15;;;12.90;99.90;;;;;;5012854;28;20184;-83
2023/05/06 01:46:00;;;;;;;11.43;8.60;;;12.90;99.90;;;;;;5012424;28;20267;-83
2023/05/06 01:48:29;;;;;;;9.38;8.35;;;12.90;99.90;;;;;;5012885;28;20180;-87
2023/05/06 01:50:55;;;;;;;9.57;8.57;;;12.80;99.90;;;;;;4997633;28;20615;-84
2023/05/06 01:53:21;;;;;;;14.52;9.57;;;12.80;99.90;;;;;;5012631;28;20183;-85
2023/05/06 01:55:47;;;;;;;10.65;8.93;;;12.80;99.90;;;;;;5383565;22;20233;-91
2023/05/06 01:58:13;;;;;;;12.63;9.27;;;12.80;99.90;;;;;;5018795;28;20171;-92
2023/05/06 02:00:39;;;;;;;11.70;8.40;;;12.80;99.90;;;;;;5017360;28;20269;-92
2023/05/06 02:03:05;;;;;;;13.85;8.93;;;12.80;99.90;;;;;;5017234;28;20180;-92
2023/05/06 02:05:31;;;;;;;10.65;8.35;;;12.80;99.90;;;;;;5033961;28;20667;-91
2023/05/06 02:08:10;;;;;;;14.30;8.18;;;12.80;99.90;;;;;;5033753;28;20532;-91
2023/05/06 02:10:35;;;;;;;15.35;8.70;;;12.80;99.90;;;;;;5017214;28;20179;-91
2023/05/06 02:13:01;;;;;;;10.32;8.15;;;12.80;99.90;;;;;;5016879;28;20186;-92
2023/05/06 02:15:27;;;;;;;13.30;9.05;;;12.80;99.90;;;;;;5016845;28;20613;-92
2023/05/06 02:17:52;;;;;;;10.05;8.00;;;12.80;99.90;;;;;;5016610;28;20664;-91
2023/05/06 02:20:18;;;;;;;11.63;7.90;;;12.80;99.90;;;;;;5016800;28;20305;-91
2023/05/06 02:22:44;;;;;;;12.00;8.18;;;12.90;99.90;;;;;;5016880;28;20326;-91
2023/05/06 02:25:09;;;;;;;9.65;7.82;;;12.80;99.90;;;;;;5016989;28;20175;-91
2023/05/06 02:27:36;;;;;;;10.98;7.82;;;12.80;99.90;;;;;;4998723;28;20519;-92
2023/05/06 02:30:02;;;;;;;10.80;7.65;;;12.80;99.90;;;;;;4998303;28;20171;-92
2023/05/06 02:32:28;;;;;;;12.40;8.43;;;12.80;99.90;;;;;;4997071;28;20184;-92
2023/05/06 02:34:54;;;;;;;12.13;7.88;;;12.90;99.90;;;;;;4997091;28;20210;-91
2023/05/06 02:37:25;;;;;;;13.55;8.70;;;12.80;99.90;;;;;;4998369;28;20180;-92
2023/05/06 02:39:50;;;;;;;9.70;7.72;;;12.90;99.90;;;;;;5013777;28;20281;-91
2023/05/06 02:42:16;;;;;;;11.15;8.50;;;12.90;99.90;;;;;;5013028;28;20616;-92
2023/05/06 02:44:44;;;;;;;11.40;7.47;;;12.80;99.90;;;;;;4996990;28;20176;-92
2023/05/06 02:47:30;;;;;;;11.32;8.32;;;12.80;99.90;;;;;;4996929;28;20184;-91
2023/05/06 02:49:56;;;;;;;14.85;8.15;;;12.70;99.90;;;;;;4997357;28;20218;-91
2023/05/06 02:52:21;;;;;;;12.88;8.07;;;12.70;99.90;;;;;;4997001;28;20183;-91
2023/05/06 02:54:47;;;;;;;11.48;7.75;;;12.70;99.90;;;;;;4998032;28;20171;-92
2023/05/06 02:57:14;;;;;;;11.50;7.50;;;12.70;99.90;;;;;;5009519;28;20611;-91
2023/05/06 02:59:39;;;;;;;13.98;7.30;;;12.70;99.90;;;;;;4996512;28;20225;-93
2023/05/06 03:02:05;;;;;;;12.00;7.75;;;12.60;99.90;;;;;;4996392;28;20179;-93
2023/05/06 03:04:31;;;;;;;10.90;7.47;;;12.60;99.90;;;;;;4996798;28;20264;-93
2023/05/06 03:06:57;;;;;;;13.50;7.50;;;12.60;99.90;;;;;;4996749;28;20186;-95
2023/05/06 03:09:23;;;;;;;13.07;7.75;;;12.60;99.90;;;;;;4996607;28;20168;-91
2023/05/06 03:11:49;;;;;;;15.45;7.78;;;12.50;99.90;;;;;;4996007;28;20187;-94
2023/05/06 03:14:15;;;;;;;12.32;7.50;;;12.50;99.90;;;;;;4996283;28;20210;-92
2023/05/06 03:16:44;;;;;;;10.93;7.25;;;12.40;99.90;;;;;;4996627;28;20180;-92
2023/05/06 03:19:09;;;;;;;14.32;7.03;;;12.40;99.90;;;;;;4997501;28;20255;-92
2023/05/06 03:21:35;;;;;;;15.07;7.28;;;12.40;99.90;;;;;;4997173;28;20295;-91
2023/05/06 03:24:01;;;;;;;12.43;7.57;;;12.30;99.90;;;;;;4997365;28;20184;-93
2023/05/06 03:26:26;;;;;;;14.57;8.30;;;12.30;99.90;;;;;;5005871;28;20194;-91
2023/05/06 03:28:53;;;;;;;10.32;7.78;;;12.30;99.90;;;;;;5032200;28;20175;-91
2023/05/06 03:31:19;;;;;;;11.13;7.25;;;12.20;99.90;;;;;;5015801;28;20187;-91
2023/05/06 03:33:44;;;;;;;11.63;7.20;;;12.20;99.90;;;;;;5015164;28;20183;-92
2023/05/06 03:36:12;;;;;;;11.90;8.05;;;12.30;99.90;;;;;;5015030;28;20175;-92
2023/05/06 03:38:48;;;;;;;11.32;7.32;;;12.20;99.90;;;;;;5015459;28;20315;-92
2023/05/06 03:41:14;;;;;;;13.20;7.20;;;12.30;99.90;;;;;;5015294;28;20293;-92
2023/05/06 03:43:40;;;;;;;13.93;8.13;;;12.30;99.90;;;;;;5015255;28;20273;-91
2023/05/06 03:46:06;;;;;;;11.95;7.72;;;12.30;99.90;;;;;;5015547;28;20180;-92
2023/05/06 03:48:34;;;;;;;11.07;7.45;;;12.30;99.90;;;;;;5015536;28;20230;-91
2023/05/06 03:51:00;;;;;;;16.05;7.63;;;12.30;99.90;;;;;;5016573;28;20167;-91
2023/05/06 03:53:27;;;;;;;13.20;8.55;;;12.30;99.90;;;;;;5015058;28;20506;-91
2023/05/06 03:55:52;;;;;;;15.65;7.18;;;12.30;99.90;;;;;;5015821;28;20237;-92
2023/05/06 03:58:20;;;;;;;11.10;7.53;;;12.40;99.90;;;;;;5015153;28;20179;-91
2023/05/06 04:00:46;;;;;;;15.40;7.95;;;12.30;99.90;;;;;;5015134;28;20209;-90
2023/05/06 04:03:11;;;;;;;10.95;7.50;;;12.40;99.90;;;;;;5031449;28;20179;-91
2023/05/06 04:05:37;;;;;;;14.73;7.45;;;12.30;99.90;;;;;;5015169;28;20179;-91
2023/05/06 04:08:16;;;;;;;15.77;7.40;;;12.40;99.90;;;;;;5015424;28;20179;-91
2023/05/06 04:10:42;;;;;;;13.07;7.70;;;12.40;99.90;;;;;;5014999;28;20172;-90
2023/05/06 04:13:07;;;;;;;15.57;8.23;;;12.40;99.90;;;;;;5014946;28;20879;-92
2023/05/06 04:15:35;;;;;;;11.45;8.00;;;12.40;99.90;;;;;;5015094;28;20190;-92
2023/05/06 04:18:06;;;;;;;10.75;7.78;;;12.40;99.90;;;;;;5031559;28;20198;-92
2023/05/06 04:20:49;;;;;;;11.00;7.75;;;12.40;99.90;;;;;;5014672;28;20218;-92
2023/05/06 04:23:15;;;;;;;11.80;7.95;;;12.40;99.90;;;;;;5014760;28;20175;-92
2023/05/06 04:25:43;;;;;;;9.18;7.60;;;12.40;99.90;;;;;;5014865;28;20183;-91
2023/05/06 04:28:13;;;;;;;13.13;7.97;;;12.40;99.90;;;;;;5014827;28;20207;-91
2023/05/06 04:30:39;;;;;;;10.40;7.90;;;12.40;99.90;;;;;;5014635;28;20214;-91
2023/05/06 04:33:06;;;;;;;13.32;8.13;;;12.40;99.90;;;;;;5014333;28;20180;-91
2023/05/06 04:35:32;;;;;;;13.05;8.18;;;12.40;99.90;;;;;;5014863;28;20183;-90
2023/05/06 04:37:58;;;;;;;10.18;7.90;;;12.30;99.90;;;;;;5014582;28;20563;-91
2023/05/06 04:40:26;;;;;;;9.30;7.57;;;12.30;99.90;;;;;;5014245;28;20261;-92
2023/05/06 04:42:52;;;;;;;13.27;7.75;;;12.40;99.90;;;;;;5013492;28;20175;-91
2023/05/06 04:45:18;;;;;;;11.40;8.30;;;12.40;99.90;;;;;;5015360;28;20199;-91
2023/05/06 04:47:49;;;;;;;12.93;8.52;;;12.40;99.90;;;;;;5014591;28;20683;-91
2023/05/06 04:50:15;;;;;;;9.77;8.43;;;12.40;99.90;;;;;;5014380;28;20198;-92
2023/05/06 04:52:41;;;;;;;12.85;8.32;;;12.50;99.90;;;;;;5014295;28;20618;-91
2023/05/06 04:55:07;;;;;;;13.52;7.90;;;12.40;99.90;;;;;;5014259;28;20284;-89
2023/05/06 04:57:35;;;;;;;11.05;8.35;;;12.40;99.90;;;;;;5013882;28;20190;-91
2023/05/06 05:00:00;;;;;;;13.57;7.60;;;12.40;99.90;;;;;;5014033;28;20207;-91
2023/05/06 05:02:26;;;;;;;9.82;7.93;;;12.50;99.90;;;;;;5015378;28;20581;-91
2023/05/06 05:04:52;;;;;;;13.00;8.70;;;12.50;99.90;;;;;;5014233;28;20556;-91
2023/05/06 05:07:17;;;;;;;12.50;8.43;;;12.50;99.90;;;;;;5014191;28;20183;-91
2023/05/06 05:09:44;;;;;;;13.02;8.88;;;12.50;99.90;;;;;;5014068;28;20179;-91
2023/05/06 05:12:10;;;;;;;15.38;8.40;;;12.50;99.90;;;;;;5013825;28;20229;-92
2023/05/06 05:14:35;;;;;;;11.10;8.35;;;12.50;99.90;;;;;;5014173;28;20172;-90
2023/05/06 05:17:01;;;;;;;11.70;8.45;;;12.50;99.90;;;;;;5014162;28;20258;-91
2023/05/06 05:19:27;;;;;;;15.00;8.00;;;12.40;99.90;;;;;;5013975;28;20194;-91
2023/05/06 05:21:53;;;;;;;10.23;8.50;;;12.40;99.90;;;;;;5014124;28;20309;-91
2023/05/06 05:24:19;;;;;;;12.05;8.27;;;12.40;99.90;;;;;;5014195;28;20206;-91
2023/05/06 05:26:45;;;;;;;13.57;8.35;;;12.40;99.90;;;;;;5013986;28;20183;-92
2023/05/06 05:29:10;;;;;;;9.98;7.97;;;12.40;99.90;;;;;;5013917;28;20237;-92
2023/05/06 05:31:36;;;;;;;11.00;8.05;;;12.50;99.90;;;;;;5015013;28;20549;-91
2023/05/06 05:34:02;;;;;;;14.38;8.05;;;12.50;99.90;;;;;;5029902;28;20184;-91
2023/05/06 05:36:28;;;;;;;12.70;7.93;;;12.50;99.90;;;;;;5013830;28;20531;-92
2023/05/06 05:38:54;;;;;;;10.40;7.75;;;12.50;99.90;;;;;;5014053;28;20228;-89
2023/05/06 05:41:20;;;;;;;16.05;8.73;;;12.50;99.90;;;;;;5014894;28;20207;-89
2023/05/06 05:43:46;;;;;;;13.65;8.68;;;12.50;99.90;;;;;;5013916;28;20175;-89
2023/05/06 05:46:12;;;;;;;13.40;7.75;;;12.40;99.90;;;;;;5013807;28;20190;-89
2023/05/06 05:48:43;;;;;;;13.40;8.18;;;12.40;99.90;;;;;;5015046;28;20590;-88
2023/05/06 05:51:09;;;;;;;19.58;8.52;;;12.30;99.90;;;;;;5013954;28;20176;-89
2023/05/06 05:53:35;;;;;;;16.60;9.20;;;12.30;99.90;;;;;;5013776;28;20270;-89
2023/05/06 05:56:00;;;;;;;13.90;8.18;;;12.30;99.90;;;;;;5013453;28;20262;-89
2023/05/06 05:58:29;;;;;;;8.80;7.82;;;12.30;99.90;;;;;;5016048;28;20180;-89
2023/05/06 06:00:55;;;;;;;18.58;8.43;;;12.30;99.90;;;;;;5001189;28;20195;-89
2023/05/06 06:03:21;;;;;;;18.83;9.27;;;12.30;99.90;;;;;;5017088;28;20172;-90
2023/05/06 06:05:48;;;;;;;11.32;8.68;;;12.20;99.90;;;;;;5017194;28;20616;-90
2023/05/06 06:08:17;;;;;;;13.70;8.60;;;12.20;99.90;;;;;;5017483;28;20181;-89
2023/05/06 06:10:48;;;;;;;17.30;9.10;;;12.10;99.90;;;;;;5016997;28;20179;-89
2023/05/06 06:13:14;;;;;;;10.88;8.40;;;12.10;99.90;;;;;;5016765;28;20677;-89
2023/05/06 06:15:40;;;;;;;13.27;9.55;;;12.10;99.90;;;;;;5017021;28;20206;-89
2023/05/06 06:18:07;;;;;;;10.93;8.35;;;12.10;99.90;;;;;;5018084;28;20474;-88
2023/05/06 06:20:34;;;;;;;12.85;9.05;;;12.10;99.90;;;;;;5018255;28;20203;-89
2023/05/06 06:23:00;;;;;;;10.68;8.38;;;12.00;99.90;;;;;;5016998;28;20179;-89
2023/05/06 06:25:26;;;;;;;12.80;8.93;;;12.00;99.90;;;;;;5016769;28;20178;-90
2023/05/06 06:27:53;;;;;;;14.90;8.55;;;11.90;99.90;;;;;;5016737;28;20578;-89
2023/05/06 06:30:25;;;;;;;15.15;8.45;;;11.90;99.90;;;;;;5016837;28;20183;-88
2023/05/06 06:32:52;;;;;;;13.35;8.15;;;11.90;99.90;;;;;;5016718;28;20186;-90
2023/05/06 06:35:19;;;;;;;11.32;8.25;;;11.90;99.90;;;;;;5017161;28;20916;-90
2023/05/06 06:37:45;;;;;;;13.60;8.43;;;11.90;99.90;;;;;;5016941;28;20255;-90
2023/05/06 06:40:11;;;;;;;13.27;8.60;;;12.00;99.90;;;;;;5016905;28;20211;-90
2023/05/06 06:42:37;;;;;;;12.10;8.23;;;12.00;99.90;;;;;;5016289;28;20183;-90
2023/05/06 06:45:06;;;;;;;14.10;9.65;;;12.00;99.90;;;;;;5016485;28;20175;-90
2023/05/06 06:47:32;;;;;;;12.93;8.55;;;12.00;99.90;;;;;;5016560;28;20186;-90
2023/05/06 06:50:12;;;;;;;13.63;8.68;;;12.10;99.90;;;;;;5016478;28;20282;-90
2023/05/06 06:52:37;;;;;;;11.70;8.32;;;12.20;99.90;;;;;;5016213;28;20171;-90
2023/05/06 06:55:03;;;;;;;14.43;8.52;;;12.20;99.90;;;;;;5016104;28;20234;-90
2023/05/06 06:57:29;;;;;;;13.25;8.85;;;12.20;99.90;;;;;;5016146;28;20226;-90
2023/05/06 07:00:01;;;;;;;13.32;8.82;;;12.10;99.90;;;;;;5016332;28;20179;-91
2023/05/06 07:02:27;;;;;;;11.18;8.40;;;12.20;99.90;;;;;;5016163;28;20186;-90
2023/05/06 07:04:53;;;;;;;9.85;8.05;;;12.20;99.90;;;;;;5016221;28;20310;-90
2023/05/06 07:07:19;;;;;;;12.10;8.68;;;12.20;99.90;;;;;;5016181;28;20282;-91
2023/05/06 07:09:44;;;;;;;13.18;8.73;;;12.30;99.90;;;;;;5014937;28;20226;-92
2023/05/06 07:12:10;;;;;;;12.68;8.65;;;12.30;99.90;;;;;;5015766;28;20259;-91
2023/05/06 07:14:36;;;;;;;10.35;8.35;;;12.30;99.90;;;;;;5016307;28;20176;-90
2023/05/06 07:17:02;;;;;;;13.27;9.23;;;12.40;99.90;;;;;;5016057;28;20186;-92
2023/05/06 07:19:32;;;;;;;11.45;9.00;;;12.50;99.90;;;;;;5015930;28;20171;-92
2023/05/06 07:21:58;;;;;;;12.48;9.30;;;12.60;99.90;;;;;;5015744;28;20211;-90
2023/05/06 07:24:23;;;;;;;11.98;8.88;;;12.60;99.90;;;;;;5015887;28;20645;-90
2023/05/06 07:26:49;;;;;;;15.60;8.75;;;12.70;99.90;;;;;;5015486;28;20189;-90
2023/05/06 07:29:16;;;;;;;12.65;9.00;;;12.80;99.90;;;;;;5017034;28;20175;-90
2023/05/06 07:31:42;;;;;;;12.73;9.18;;;12.90;99.90;;;;;;5015713;28;20561;-90
2023/05/06 07:34:07;;;;;;;11.25;8.43;;;13.00;99.90;;;;;;5016764;28;20259;-90
2023/05/06 07:36:39;;;;;;;13.35;9.20;;;13.10;99.90;;;;;;5016099;28;20513;-88
2023/05/06 07:39:09;;;;;;;14.43;8.60;;;13.20;99.90;;;;;;5015670;28;20175;-92
2023/05/06 07:41:35;;;;;;;14.35;8.95;;;13.20;99.90;;;;;;5015318;28;20213;-89
2023/05/06 07:44:01;;;;;;;14.35;9.43;;;13.20;99.90;;;;;;5016546;28;20175;-89
2023/05/06 07:46:27;;;;;;;11.02;9.18;;;13.30;99.90;;;;;;5031878;28;20229;-88
2023/05/06 07:48:54;;;;;;;17.65;9.95;;;13.40;99.90;;;;;;5015344;28;20176;-87
2023/05/06 07:51:20;;;;;;;15.02;9.25;;;13.30;99.90;;;;;;5015849;28;20622;-89
2023/05/06 07:53:46;;;;;;;11.70;9.50;;;13.40;99.90;;;;;;5015470;28;20186;-89
2023/05/06 07:56:11;;;;;;;16.33;10.52;;;13.40;99.90;;;;;;5016114;28;20226;-87
2023/05/06 07:58:37;;;;;;;15.50;9.82;;;13.30;99.90;;;;;;5031641;28;20219;-88
2023/05/06 08:01:05;;;;;;;14.82;10.00;;;13.20;99.90;;;;;;5014211;28;20313;-88
2023/05/06 08:03:30;;;;;;;11.68;8.75;;;13.20;99.90;;;;;;5014573;28;20254;-88
2023/05/06 08:05:56;;;;;;;13.38;9.63;;;13.20;99.90;;;;;;5014972;28;20187;-89
2023/05/06 08:08:26;;;;;;;13.43;9.45;;;13.20;99.90;;;;;;5014937;28;20179;-87
2023/05/06 08:10:53;;;;;;;14.65;10.20;;;13.20;99.90;;;;;;5014261;28;20175;-89
2023/05/06 08:13:19;;;;;;;17.30;10.75;;;13.20;99.90;;;;;;5030884;28;20185;-89
2023/05/06 08:15:44;;;;;;;14.60;9.27;;;13.20;99.90;;;;;;5014383;28;20266;-87
2023/05/06 08:18:10;;;;;;;12.20;9.98;;;13.30;99.90;;;;;;5014552;28;20258;-88
2023/05/06 08:20:36;;;;;;;17.60;10.95;;;13.30;99.90;;;;;;5014425;28;20215;-86
2023/05/06 08:23:02;;;;;;;14.95;10.13;;;13.40;99.90;;;;;;5014116;28;20227;-86
2023/05/06 08:25:27;;;;;;;12.55;10.77;;;13.50;99.90;;;;;;5015541;28;20264;-86
2023/05/06 08:27:53;;;;;;;15.70;10.43;;;13.60;99.90;;;;;;5014391;28;20511;-85
2023/05/06 08:30:19;;;;;;;14.63;10.55;;;13.70;99.90;;;;;;5014102;28;20183;-87
2023/05/06 08:32:44;;;;;;;14.98;10.38;;;13.70;99.90;;;;;;5014091;28;20179;-89
2023/05/06 08:35:10;;;;;;;12.75;11.25;;;13.70;99.90;;;;;;5013328;28;20721;-88
2023/05/06 08:37:36;;;;;;;15.85;11.20;;;13.60;99.90;;;;;;5013810;28;20270;-88
2023/05/06 08:40:04;;;;;;;17.35;11.90;;;13.60;99.90;;;;;;5027105;28;20178;-88
2023/05/06 08:42:31;;;;;;;14.70;11.13;;;13.60;99.90;;;;;;5012976;28;20183;-88
2023/05/06 08:44:57;;;;;;;13.45;11.57;;;13.60;99.90;;;;;;5013365;28;20241;-89
2023/05/06 08:47:23;;;;;;;19.00;12.20;;;13.70;99.90;;;;;;5013499;28;20174;-87
2023/05/06 08:49:49;;;;;;;15.13;11.93;;;13.80;99.90;;;;;;5013739;28;20525;-88
2023/05/06 08:52:15;;;;;;;14.07;10.70;;;14.00;99.90;;;;;;5013789;28;20168;-90
2023/05/06 08:54:42;;;;;;;14.48;10.40;;;14.20;99.90;;;;;;5025725;28;20194;-88
2023/05/06 08:57:10;;;;;;;13.40;9.38;;;14.30;99.90;;;;;;5014872;28;20172;-86
2023/05/06 08:59:37;;;;;;;15.73;9.95;;;14.60;99.90;;;;;;5012404;28;20176;-90
2023/05/06 09:02:04;;;;;;;13.35;9.30;;;14.80;99.90;;;;;;5013675;28;20215;-89
2023/05/06 09:04:30;;;;;;;17.88;10.13;;;15.00;99.90;;;;;;5013571;28;20186;-87
2023/05/06 09:06:59;;;;;;;13.20;9.68;;;15.30;99.90;;;;;;5010479;28;20245;-90
2023/05/06 09:09:25;;;;;;;13.50;9.88;;;15.50;99.90;;;;;;5013432;28;20253;-87
2023/05/06 09:11:53;;;;;;;16.00;10.15;;;15.60;99.90;;;;;;5021449;28;20552;-85
2023/05/06 09:14:20;;;;;;;12.60;9.20;;;15.70;99.90;;;;;;5025316;28;20625;-90
2023/05/06 09:16:51;;;;;;;14.30;9.40;;;15.50;99.90;;;;;;5013438;28;20183;-88
2023/05/06 09:19:18;;;;;;;11.63;8.73;;;15.40;99.90;;;;;;5013449;28;20198;-91
2023/05/06 09:21:46;;;;;;;11.40;8.90;;;15.50;99.90;;;;;;5013568;28;20214;-86
2023/05/06 09:24:14;;;;;;;12.30;8.75;;;15.60;99.90;;;;;;5014517;28;20168;-87
2023/05/06 09:26:41;;;;;;;14.02;9.73;;;15.70;99.90;;;;;;5014213;28;20203;-84
2023/05/06 09:29:07;;;;;;;11.15;9.20;;;15.60;99.90;;;;;;5012347;28;20297;-85
2023/05/06 09:31:43;;;;;;;13.55;8.18;;;15.60;99.90;;;;;;5012822;28;20217;-86
2023/05/06 09:34:09;;;;;;;10.20;7.95;;;15.70;99.90;;;;;;5013329;28;20186;-86
2023/05/06 09:36:36;;;;;;;10.63;8.20;;;15.80;99.90;;;;;;5016574;28;20171;-84
2023/05/06 09:39:03;;;;;;;12.98;8.07;;;15.90;99.90;;;;;;5024020;28;20186;-85
2023/05/06 09:41:29;;;;;;;14.07;8.50;;;15.90;99.90;;;;;;5020482;28;20218;-83
2023/05/06 09:43:56;;;;;;;12.80;9.48;;;16.00;99.90;;;;;;5016156;28;20199;-83
2023/05/06 09:46:23;;;;;;;11.68;8.20;;;16.10;99.90;;;;;;5017818;28;20191;-83
2023/05/06 09:48:50;;;;;;;12.68;7.68;;;16.20;99.90;;;;;;5032055;28;20634;-83
2023/05/06 09:51:20;;;;;;;9.27;7.28;;;16.40;99.90;;;;;;5025468;28;20561;-86
2023/05/06 09:53:46;;;;;;;10.90;6.93;;;16.60;99.90;;;;;;5023560;28;20180;-84
2023/05/06 09:56:13;;;;;;;16.83;6.97;;;16.50;99.90;;;;;;5027809;28;20655;-84
2023/05/06 09:58:39;;;;;;;12.50;7.80;;;16.30;99.90;;;;;;5017706;28;20195;-84
2023/05/06 10:01:14;;;;;;;11.40;7.90;;;16.20;99.90;;;;;;5033344;28;20289;-86
2023/05/06 10:03:41;;;;;;;9.70;7.72;;;15.80;99.90;;;;;;5032380;28;20167;-85
2023/05/06 10:06:10;;;;;;;15.20;8.00;;;15.80;99.90;;;;;;5024129;28;20481;-85
2023/05/06 10:08:36;;;;;;;10.05;7.63;;;15.80;99.90;;;;;;5036471;28;20183;-85
2023/05/06 10:11:04;;;;;;;11.07;7.32;;;15.80;99.90;;;;;;5019498;28;20614;-89
2023/05/06 10:13:30;;;;;;;11.43;7.13;;;15.80;99.90;;;;;;5015717;28;20214;-84
2023/05/06 10:15:56;;;;;;;10.23;7.90;;;15.80;99.90;;;;;;5016520;28;20211;-84
2023/05/06 10:18:25;;;;;;;8.57;6.88;;;15.70;99.90;;;;;;5016467;28;20175;-85
2023/05/06 10:20:54;;;;;;;11.10;6.93;;;15.80;99.90;;;;;;5016060;28;20603;-87
2023/05/06 10:23:24;;;;;;;8.75;6.85;;;16.00;99.90;;;;;;5015979;28;20179;-88
2023/05/06 10:25:54;;;;;;;10.63;6.35;;;16.20;99.90;;;;;;5016666;28;20168;-87
2023/05/06 10:28:20;;;;;;;7.60;6.30;;;16.00;99.90;;;;;;5016592;28;20321;-87
2023/05/06 10:30:48;;;;;;;10.75;7.28;;;15.90;99.90;;;;;;5016513;28;20184;-88
2023/05/06 10:33:15;;;;;;;12.20;7.30;;;15.80;99.90;;;;;;5013637;28;20179;-88
2023/05/06 10:35:51;;;;;;;9.05;6.68;;;15.70;99.90;;;;;;5016651;28;20186;-86
2023/05/06 10:38:35;;;;;;;10.27;6.63;;;15.60;99.90;;;;;;5016739;28;20195;-86
2023/05/06 10:41:02;;;;;;;9.25;6.55;;;15.70;99.90;;;;;;5015955;28;20206;-85
2023/05/06 10:43:30;;;;;;;7.40;6.22;;;15.80;99.90;;;;;;5015834;28;20189;-86
2023/05/06 10:46:09;;;;;;;11.85;6.60;;;15.90;99.90;;;;;;5015974;28;20187;-88
2023/05/06 10:48:59;;;;;;;10.75;6.35;;;16.00;99.90;;;;;;5015986;28;20183;-86
2023/05/06 10:51:27;;;;;;;8.48;6.10;;;16.10;99.90;;;;;;5015562;28;20190;-86
2023/05/06 10:54:17;;;;;;;9.10;6.30;;;16.20;99.90;;;;;;5015794;28;20167;-86
2023/05/06 10:56:49;;;;;;;14.90;6.95;;;16.20;99.90;;;;;;5015098;28;20632;-86
2023/05/06 10:59:23;;;;;;;10.55;6.20;;;16.30;99.90;;;;;;5015060;28;20587;-87
2023/05/06 11:02:01;;;;;;;9.95;7.53;;;16.30;99.90;;;;;;5015811;28;20302;-86
2023/05/06 11:04:29;;;;;;;9.60;8.05;;;16.30;99.90;;;;;;5015950;28;20175;-86
2023/05/06 11:07:12;;;;;;;12.68;8.13;;;16.10;99.90;;;;;;5015208;28;20266;-86
2023/05/06 11:09:57;;;;;;;17.05;9.65;;;16.00;99.90;;;;;;5015075;28;20171;-85
2023/05/06 11:12:51;;;;;;;17.85;8.68;;;16.20;99.90;;;;;;5015550;28;20226;-87
2023/05/06 11:15:39;;;;;;;16.83;9.10;;;16.10;99.90;;;;;;5016657;28;20222;-87
2023/05/06 11:18:23;;;;;;;16.67;9.02;;;16.20;99.90;;;;;;5016810;28;20198;-84
2023/05/06 11:21:01;;;;;;;10.85;7.75;;;16.50;99.90;;;;;;5007173;28;20227;-84
2023/05/06 11:23:45;;;;;;;13.75;8.40;;;16.30;99.90;;;;;;4996771;28;20159;-88
2023/05/06 11:26:12;;;;;;;13.20;8.85;;;16.20;99.90;;;;;;4996191;28;20190;-89
2023/05/06 11:28:39;;;;;;;15.65;8.27;;;16.20;99.90;;;;;;4997138;28;20172;-86
2023/05/06 11:31:06;;;;;;;11.93;7.70;;;16.20;99.90;;;;;;4995783;28;20188;-87
2023/05/06 11:33:34;;;;;;;11.95;8.13;;;16.10;99.90;;;;;;4995583;28;20183;-88
2023/05/06 11:36:00;;;;;;;12.85;7.38;;;16.20;99.90;;;;;;4996831;28;20623;-86
2023/05/06 11:38:39;;;;;;;11.85;7.28;;;16.50;99.90;;;;;;4996735;28;20180;-86
2023/05/06 11:41:06;;;;;;;10.20;7.43;;;16.40;99.90;;;;;;4997597;28;20211;-88
2023/05/06 11:43:32;;;;;;;11.35;7.90;;;16.70;99.90;;;;;;5031492;28;20262;-86
2023/05/06 11:45:58;;;;;;;9.15;6.55;;;17.10;99.90;;;;;;5014791;28;20175;-88
2023/05/06 11:48:23;;;;;;;10.93;7.25;;;17.10;99.90;;;;;;5014924;28;20573;-88
2023/05/06 11:50:49;;;;;;;8.80;6.90;;;17.10;99.90;;;;;;5031490;28;20229;-85
2023/05/06 11:53:17;;;;;;;11.52;7.10;;;16.90;99.90;;;;;;5014765;28;20200;-87
2023/05/06 11:55:45;;;;;;;7.93;6.22;;;16.80;99.90;;;;;;5015327;28;20653;-89
2023/05/06 11:58:18;;;;;;;11.57;6.65;;;16.60;99.90;;;;;;5031576;28;20622;-90
2023/05/06 12:00:53;;;;;;;9.07;6.63;;;16.60;99.90;;;;;;5014502;28;20207;-91
2023/05/06 12:03:20;;;;;;;8.48;5.60;;;16.60;99.90;;;;;;5014849;28;20175;-90
2023/05/06 12:05:47;;;;;;;10.98;7.22;;;16.80;99.90;;;;;;5015000;28;20201;-88
2023/05/06 12:08:25;;;;;;;10.35;6.45;;;16.90;99.90;;;;;;5014528;28;20313;-91
2023/05/06 12:10:53;;;;;;;11.73;6.95;;;16.90;99.90;;;;;;5014803;28;20178;-89
2023/05/06 12:13:20;;;;;;;10.52;6.82;;;16.90;99.90;;;;;;5014574;28;20218;-85
2023/05/06 12:15:48;;;;;;;13.02;7.20;;;17.40;99.90;;;;;;5014457;28;20202;-88
2023/05/06 12:18:14;;;;;;;9.38;5.95;;;17.90;99.90;;;;;;5014796;28;20583;-91
2023/05/06 12:20:40;;;;;;;11.30;6.18;;;18.20;99.90;;;;;;5014803;28;20276;-86
2023/05/06 12:23:16;;;;;;;12.20;5.78;;;18.10;99.90;;;;;;5015663;28;20207;-92
2023/05/06 12:25:43;;;;;;;7.85;5.82;;;17.70;99.90;;;;;;5013967;28;20178;-88
2023/05/06 12:28:27;;;;;;;8.75;5.65;;;17.30;99.90;;;;;;5014122;28;20191;-87
2023/05/06 12:30:53;;;;;;;9.00;5.53;;;16.90;99.90;;;;;;4994446;28;20266;-89
2023/05/06 12:33:20;;;;;;;12.13;6.03;;;17.20;99.90;;;;;;4995720;28;20302;-88
2023/05/06 12:35:46;;;;;;;7.65;6.07;;;17.40;99.90;;;;;;4994767;28;20183;-87
2023/05/06 12:38:15;;;;;;;7.60;6.00;;;17.60;99.90;;;;;;4994515;28;20180;-86
2023/05/06 12:40:43;;;;;;;8.43;5.70;;;17.80;99.90;;;;;;4994020;28;20211;-87
2023/05/06 12:43:10;;;;;;;8.88;5.88;;;18.00;99.90;;;;;;5013116;28;20187;-85